createdAt,value
2022-08-31T00:00:54.381Z,100.00
2022-08-31T00:04:06.174Z,100.00
2022-08-31T00:07:08.210Z,99.81
2022-08-31T00:10:15.321Z,100.00
2022-08-31T00:13:18.156Z,99.32
2022-08-31T00:16:20.117Z,99.03
2022-08-31T00:19:21.789Z,98.41
2022-08-31T00:22:23.442Z,98.35
2022-08-31T00:25:25.234Z,97.77
2022-08-31T00:28:27.121Z,97.26
2022-08-31T00:31:30.221Z,97.76
2022-08-31T00:34:32.175Z,97.86
2022-08-31T00:37:34.212Z,98.19
2022-08-31T00:40:44.342Z,99.86
2022-08-31T00:43:59.460Z,100.00
2022-08-31T00:47:01.399Z,100.00
2022-08-31T00:50:06.768Z,100.00
2022-08-31T00:53:08.520Z,100.00
2022-08-31T00:56:10.324Z,100.00
2022-08-31T00:59:15.454Z,100.00
2022-08-31T01:02:18.413Z,99.77
2022-08-31T01:05:20.609Z,100.00
2022-08-31T01:08:30.516Z,100.00
2022-08-31T01:11:33.314Z,100.00
2022-08-31T01:14:37.264Z,98.28
2022-08-31T01:17:41.161Z,98.82
2022-08-31T01:20:52.278Z,99.62
2022-08-31T01:23:56.810Z,99.24
2022-08-31T01:27:04.822Z,98.55
2022-08-31T01:30:10.521Z,98.45
2022-08-31T01:33:13.372Z,98.59
2022-08-31T01:36:16.490Z,100.00
2022-08-31T01:39:19.280Z,100.00
2022-08-31T01:42:21.155Z,100.00
2022-08-31T01:45:23.006Z,100.00
2022-08-31T01:48:24.732Z,99.75
2022-08-31T01:51:26.930Z,99.42
2022-08-31T01:54:28.606Z,99.38
2022-08-31T01:57:34.041Z,99.89
2022-08-31T02:01:15.577Z,100.00
2022-08-31T02:04:30.644Z,100.00
2022-08-31T02:07:32.991Z,100.00
2022-08-31T02:10:35.214Z,100.00
2022-08-31T02:13:37.583Z,100.00
2022-08-31T02:16:40.426Z,100.00
2022-08-31T02:19:42.310Z,100.00
2022-08-31T02:22:44.492Z,100.00
2022-08-31T02:25:46.357Z,100.00
2022-08-31T02:28:48.501Z,100.00
2022-08-31T02:31:52.175Z,100.00
2022-08-31T02:34:54.048Z,100.00
2022-08-31T02:37:56.560Z,100.00
2022-08-31T02:40:59.878Z,100.00
2022-08-31T02:44:02.413Z,100.00
2022-08-31T02:47:04.653Z,100.00
2022-08-31T02:50:33.575Z,99.43
2022-08-31T02:53:35.898Z,96.12
2022-08-31T02:56:38.425Z,92.11
2022-08-31T02:59:40.345Z,91.05
2022-08-31T03:02:42.320Z,90.68
2022-08-31T03:05:44.054Z,91.24
2022-08-31T03:08:47.134Z,91.00
2022-08-31T03:11:49.038Z,90.01
2022-08-31T03:14:50.698Z,91.76
2022-08-31T03:17:53.346Z,89.16
2022-08-31T03:20:57.005Z,89.61
2022-08-31T03:23:58.774Z,89.35
2022-08-31T03:27:00.451Z,89.15
2022-08-31T03:30:20.011Z,88.27
2022-08-31T03:33:31.843Z,88.74
2022-08-31T03:36:34.335Z,88.31
2022-08-31T03:39:38.146Z,86.09
2022-08-31T03:42:40.762Z,86.37
2022-08-31T03:45:44.327Z,85.36
2022-08-31T03:48:50.029Z,84.32
2022-08-31T03:51:52.563Z,82.63
2022-08-31T03:54:57.115Z,82.58
2022-08-31T03:57:59.140Z,80.80
2022-08-31T04:01:01.185Z,82.78
2022-08-31T04:04:23.557Z,79.30
2022-08-31T04:07:25.201Z,77.46
2022-08-31T04:10:49.007Z,78.70
2022-08-31T04:14:28.508Z,78.51
2022-08-31T04:17:57.073Z,77.79
2022-08-31T04:21:22.939Z,78.83
2022-08-31T04:24:25.487Z,78.10
2022-08-31T04:27:27.163Z,76.28
2022-08-31T04:30:28.832Z,77.24
2022-08-31T04:33:30.552Z,78.75
2022-08-31T04:36:32.477Z,85.82
2022-08-31T04:39:34.655Z,90.21
2022-08-31T04:42:53.163Z,94.14
2022-08-31T04:45:57.219Z,94.62
2022-08-31T04:48:59.569Z,91.57
2022-08-31T04:52:01.569Z,86.91
2022-08-31T04:55:05.890Z,83.61
2022-08-31T04:58:07.757Z,80.10
2022-08-31T05:01:17.361Z,79.23
2022-08-31T05:04:37.467Z,78.66
2022-08-31T05:07:39.136Z,78.07
2022-08-31T05:10:41.783Z,83.63
2022-08-31T05:13:43.570Z,89.19
2022-08-31T05:16:46.694Z,91.79
2022-08-31T05:19:51.781Z,91.50
2022-08-31T05:22:53.578Z,91.90
2022-08-31T05:25:55.259Z,92.15
2022-08-31T05:29:00.057Z,94.32
2022-08-31T05:32:02.772Z,90.66
2022-08-31T05:35:05.419Z,87.03
2022-08-31T05:38:07.420Z,89.29
2022-08-31T05:41:10.262Z,92.71
2022-08-31T05:44:12.820Z,95.41
2022-08-31T05:47:14.674Z,96.45
2022-08-31T05:50:18.564Z,97.65
2022-08-31T05:53:21.079Z,97.15
2022-08-31T05:56:27.071Z,96.43
2022-08-31T05:59:31.356Z,96.06
2022-08-31T06:02:34.054Z,96.12
2022-08-31T06:05:37.762Z,95.76
2022-08-31T06:08:40.889Z,94.67
2022-08-31T06:11:42.702Z,94.98
2022-08-31T06:14:52.728Z,96.95
2022-08-31T06:17:55.421Z,97.58
2022-08-31T06:21:09.334Z,98.36
2022-08-31T06:24:12.962Z,98.36
2022-08-31T06:27:14.702Z,97.57
2022-08-31T06:30:22.129Z,97.86
2022-08-31T06:33:25.859Z,97.83
2022-08-31T06:36:38.419Z,97.28
2022-08-31T06:40:12.731Z,97.16
2022-08-31T06:43:31.935Z,95.68
2022-08-31T06:46:38.794Z,96.70
2022-08-31T06:49:53.838Z,96.44
2022-08-31T06:52:57.301Z,96.04
2022-08-31T06:56:20.512Z,96.63
2022-08-31T06:59:41.597Z,97.71
2022-08-31T07:03:23.077Z,97.53
2022-08-31T07:06:31.913Z,95.74
2022-08-31T07:09:35.679Z,94.12
2022-08-31T07:12:37.793Z,94.81
2022-08-31T07:15:39.980Z,96.40
2022-08-31T07:18:43.413Z,95.90
2022-08-31T07:21:49.585Z,95.53
2022-08-31T07:24:52.029Z,92.84
2022-08-31T07:27:55.578Z,93.66
2022-08-31T07:30:57.985Z,92.40
2022-08-31T07:33:59.726Z,89.60
2022-08-31T07:37:23.272Z,89.45
2022-08-31T07:40:43.934Z,89.59
2022-08-31T07:43:47.976Z,90.03
2022-08-31T07:46:55.213Z,90.53
2022-08-31T07:50:00.654Z,87.66
2022-08-31T07:53:14.346Z,88.72
2022-08-31T07:56:38.265Z,86.95
2022-08-31T07:59:45.071Z,85.72
2022-08-31T08:02:50.946Z,86.12
2022-08-31T08:05:56.447Z,87.22
2022-08-31T08:09:25.515Z,87.39
2022-08-31T08:12:36.261Z,86.76
2022-08-31T08:15:52.525Z,86.05
2022-08-31T08:19:22.552Z,86.54
2022-08-31T08:22:48.446Z,87.40
2022-08-31T08:26:21.944Z,87.25
2022-08-31T08:29:39.334Z,86.69
2022-08-31T08:32:42.722Z,81.89
2022-08-31T08:35:44.959Z,82.49
2022-08-31T08:38:50.526Z,84.38
2022-08-31T08:41:56.158Z,83.69
2022-08-31T08:44:58.384Z,83.88
2022-08-31T08:48:01.061Z,81.83
2022-08-31T08:51:09.635Z,82.20
2022-08-31T08:54:28.867Z,80.62
2022-08-31T08:57:34.679Z,83.68
2022-08-31T09:00:38.702Z,83.06
2022-08-31T09:04:06.618Z,82.37
2022-08-31T09:07:45.488Z,78.95
2022-08-31T09:10:53.232Z,79.59
2022-08-31T09:14:01.584Z,79.59
2022-08-31T09:17:45.397Z,79.86
2022-08-31T09:21:05.009Z,83.79
2022-08-31T09:24:13.542Z,81.92
2022-08-31T09:27:57.457Z,81.16
2022-08-31T09:30:59.176Z,83.67
2022-08-31T09:34:02.302Z,82.74
2022-08-31T09:37:40.482Z,80.38
2022-08-31T09:40:47.897Z,77.29
2022-08-31T09:43:50.185Z,78.03
2022-08-31T09:47:01.461Z,77.18
2022-08-31T09:50:04.472Z,75.50
2022-08-31T09:53:30.779Z,75.49
2022-08-31T09:56:32.742Z,72.58
2022-08-31T09:59:47.135Z,72.57
2022-08-31T10:02:57.951Z,74.13
2022-08-31T10:06:01.073Z,72.16
2022-08-31T10:09:10.621Z,71.76
2022-08-31T10:12:20.515Z,70.60
2022-08-31T10:15:52.922Z,70.16
2022-08-31T10:19:04.477Z,66.71
2022-08-31T10:22:22.046Z,66.76
2022-08-31T10:25:37.138Z,64.85
2022-08-31T10:28:44.867Z,63.14
2022-08-31T10:31:50.394Z,61.34
2022-08-31T10:35:05.644Z,61.01
2022-08-31T10:41:49.399Z,64.30
2022-08-31T10:44:57.221Z,65.54
2022-08-31T10:47:59.414Z,62.92
2022-08-31T10:51:13.135Z,62.74
2022-08-31T10:54:28.750Z,60.69
2022-08-31T10:57:56.492Z,60.94
2022-08-31T11:01:16.587Z,62.45
2022-08-31T11:04:48.419Z,56.64
2022-08-31T11:08:29.976Z,58.94
2022-08-31T11:11:38.294Z,57.83
2022-08-31T11:15:09.779Z,57.02
2022-08-31T11:18:40.090Z,59.27
2022-08-31T11:22:19.547Z,56.71
2022-08-31T11:25:47.397Z,57.71
2022-08-31T11:29:00.329Z,57.13
2022-08-31T11:32:22.550Z,58.39
2022-08-31T11:35:57.376Z,58.70
2022-08-31T11:39:03.166Z,57.73
2022-08-31T11:42:12.465Z,58.52
2022-08-31T11:45:31.708Z,56.78
2022-08-31T11:48:53.917Z,58.86
2022-08-31T11:51:57.305Z,56.20
2022-08-31T11:55:19.502Z,56.08
2022-08-31T11:58:26.643Z,55.34
2022-08-31T12:01:35.324Z,55.33
2022-08-31T12:04:46.217Z,56.14
2022-08-31T12:07:48.863Z,56.69
2022-08-31T12:11:12.922Z,54.58
2022-08-31T12:14:38.005Z,54.45
2022-08-31T12:18:02.133Z,52.76
2022-08-31T12:21:38.542Z,54.72
2022-08-31T12:25:02.984Z,50.97
2022-08-31T12:28:37.282Z,53.78
2022-08-31T12:31:41.807Z,53.67
2022-08-31T12:34:58.278Z,52.25
2022-08-31T12:38:11.010Z,51.04
2022-08-31T12:41:14.684Z,51.07
2022-08-31T12:44:27.152Z,55.22
2022-08-31T12:47:57.304Z,56.43
2022-08-31T12:51:11.681Z,57.43
2022-08-31T12:54:39.680Z,56.91
2022-08-31T12:58:02.565Z,57.38
2022-08-31T13:01:11.542Z,56.52
2022-08-31T13:04:16.819Z,57.02
2022-08-31T13:07:43.543Z,56.06
2022-08-31T13:10:45.312Z,54.13
2022-08-31T13:13:47.059Z,55.32
2022-08-31T13:16:52.159Z,56.45
2022-08-31T13:19:57.960Z,57.66
2022-08-31T13:23:04.009Z,57.46
2022-08-31T13:26:19.797Z,58.20
2022-08-31T13:29:23.893Z,60.67
2022-08-31T13:32:30.853Z,60.49
2022-08-31T13:35:35.725Z,63.54
2022-08-31T13:38:51.210Z,63.94
2022-08-31T13:42:08.315Z,63.96
2022-08-31T13:45:58.000Z,63.49
2022-08-31T13:49:03.203Z,62.34
2022-08-31T13:52:14.503Z,60.24
2022-08-31T13:55:37.762Z,58.40
2022-08-31T13:58:41.002Z,57.15
2022-08-31T14:01:48.122Z,57.76
2022-08-31T14:04:58.309Z,60.19
2022-08-31T14:08:02.715Z,62.39
2022-08-31T14:11:14.190Z,61.59
2022-08-31T14:14:16.046Z,62.96
2022-08-31T14:17:26.336Z,64.54
2022-08-31T14:20:34.139Z,64.62
2022-08-31T14:23:37.405Z,65.58
2022-08-31T14:26:44.248Z,65.17
2022-08-31T14:29:46.043Z,64.89
2022-08-31T14:32:48.298Z,64.73
2022-08-31T14:35:55.553Z,62.68
2022-08-31T14:38:58.739Z,60.61
2022-08-31T14:42:08.104Z,62.08
2022-08-31T14:45:21.379Z,61.36
2022-08-31T14:48:23.096Z,60.49
2022-08-31T14:51:26.308Z,60.93
2022-08-31T14:54:34.826Z,60.52
2022-08-31T14:57:39.361Z,61.63
2022-08-31T15:00:53.191Z,62.70
2022-08-31T15:03:55.377Z,59.93
2022-08-31T15:07:09.506Z,59.24
2022-08-31T15:10:13.073Z,57.52
2022-08-31T15:13:14.710Z,56.23
2022-08-31T15:16:17.269Z,55.88
2022-08-31T15:19:19.040Z,53.96
2022-08-31T15:22:22.881Z,55.78
2022-08-31T15:25:26.363Z,55.65
2022-08-31T15:28:31.644Z,56.99
2022-08-31T15:31:34.973Z,57.38
2022-08-31T15:34:37.783Z,58.71
2022-08-31T15:37:40.071Z,58.00
2022-08-31T15:40:42.847Z,59.60
2022-08-31T15:43:44.643Z,61.34
2022-08-31T15:47:05.626Z,63.99
2022-08-31T15:50:07.591Z,65.01
2022-08-31T15:53:11.588Z,65.33
2022-08-31T15:56:13.673Z,65.79
2022-08-31T15:59:15.938Z,66.31
2022-08-31T16:02:21.101Z,65.92
2022-08-31T16:05:24.764Z,65.65
2022-08-31T16:08:27.631Z,67.22
2022-08-31T16:11:36.948Z,68.02
2022-08-31T16:14:41.447Z,68.74
2022-08-31T16:17:43.848Z,68.92
2022-08-31T16:20:50.111Z,69.50
2022-08-31T16:24:01.580Z,69.99
2022-08-31T16:27:08.154Z,71.17
2022-08-31T16:30:10.892Z,71.83
2022-08-31T16:33:15.322Z,71.67
2022-08-31T16:36:19.410Z,72.09
2022-08-31T16:39:22.802Z,73.23
2022-08-31T16:42:27.511Z,73.91
2022-08-31T16:45:29.447Z,74.06
2022-08-31T16:48:49.789Z,74.83
2022-08-31T16:51:51.516Z,74.87
2022-08-31T16:54:54.322Z,75.16
2022-08-31T16:57:56.183Z,75.45
2022-08-31T17:01:12.768Z,75.36
2022-08-31T17:04:29.490Z,75.89
2022-08-31T17:07:42.737Z,75.35
2022-08-31T17:10:44.867Z,74.75
2022-08-31T17:13:47.504Z,74.12
2022-08-31T17:16:53.061Z,74.31
2022-08-31T17:19:58.655Z,73.18
2022-08-31T17:23:00.402Z,73.32
2022-08-31T17:26:06.172Z,73.25
2022-08-31T17:29:07.952Z,73.29
2022-08-31T17:32:10.692Z,73.41
2022-08-31T17:35:18.468Z,72.72
2022-08-31T17:38:20.875Z,73.38
2022-08-31T17:41:23.060Z,72.49
2022-08-31T17:44:32.542Z,72.89
2022-08-31T17:47:36.100Z,74.11
2022-08-31T17:50:42.612Z,75.26
2022-08-31T17:53:44.600Z,75.17
2022-08-31T17:56:51.438Z,75.23
2022-08-31T17:59:55.031Z,75.37
2022-08-31T18:02:56.812Z,75.17
2022-08-31T18:05:58.510Z,75.47
2022-08-31T18:09:01.125Z,76.21
2022-08-31T18:12:03.824Z,77.71
2022-08-31T18:15:06.033Z,78.95
2022-08-31T18:18:07.830Z,78.47
2022-08-31T18:21:09.548Z,79.50
2022-08-31T18:24:14.230Z,80.33
2022-08-31T18:27:17.031Z,81.66
2022-08-31T18:30:19.289Z,82.19
2022-08-31T18:33:21.359Z,83.15
2022-08-31T18:36:23.871Z,83.42
2022-08-31T18:39:50.570Z,83.51
2022-08-31T18:43:08.561Z,82.26
2022-08-31T18:46:10.326Z,81.82
2022-08-31T18:49:12.898Z,79.66
2022-08-31T18:52:21.247Z,78.07
2022-08-31T18:55:23.019Z,76.86
2022-08-31T18:58:24.802Z,76.82
2022-08-31T19:01:33.431Z,76.54
2022-08-31T19:04:36.263Z,76.66
2022-08-31T19:07:39.102Z,75.93
2022-08-31T19:10:41.969Z,76.24
2022-08-31T19:13:46.083Z,75.64
2022-08-31T19:16:51.379Z,75.18
2022-08-31T19:20:03.965Z,73.06
2022-08-31T19:23:05.788Z,74.96
2022-08-31T19:26:08.107Z,76.78
2022-08-31T19:29:14.162Z,77.54
2022-08-31T19:32:16.007Z,77.31
2022-08-31T19:35:18.242Z,77.82
2022-08-31T19:38:21.209Z,78.62
2022-08-31T19:41:24.976Z,78.66
2022-08-31T19:44:28.106Z,79.72
2022-08-31T19:47:31.637Z,80.37
2022-08-31T19:50:41.535Z,79.57
2022-08-31T19:53:45.200Z,77.44
2022-08-31T19:56:47.432Z,76.00
2022-08-31T19:59:49.907Z,75.59
2022-08-31T20:02:51.732Z,74.82
2022-08-31T20:05:54.128Z,74.90
2022-08-31T20:08:55.820Z,75.12
2022-08-31T20:11:59.947Z,75.84
2022-08-31T20:15:01.950Z,78.39
2022-08-31T20:18:03.729Z,77.34
2022-08-31T20:21:15.234Z,73.84
2022-08-31T20:24:16.961Z,75.70
2022-08-31T20:27:19.570Z,78.07
2022-08-31T20:30:22.078Z,78.59
2022-08-31T20:33:26.106Z,80.06
2022-08-31T20:36:30.706Z,81.04
2022-08-31T20:39:33.251Z,81.14
2022-08-31T20:42:34.900Z,82.69
2022-08-31T20:45:38.375Z,74.68
2022-08-31T20:48:58.793Z,74.48
2022-08-31T20:52:02.104Z,74.77
2022-08-31T20:55:06.231Z,75.02
2022-08-31T20:58:08.236Z,74.36
2022-08-31T21:01:12.153Z,74.30
2022-08-31T21:04:13.742Z,74.76
2022-08-31T21:07:17.797Z,75.11
2022-08-31T21:10:36.173Z,75.32
2022-08-31T21:13:39.661Z,75.32
2022-08-31T21:16:42.036Z,77.05
2022-08-31T21:19:44.521Z,78.98
2022-08-31T21:22:46.197Z,79.28
2022-08-31T21:25:47.913Z,78.70
2022-08-31T21:28:49.879Z,74.91
2022-08-31T21:32:01.294Z,73.43
2022-08-31T21:35:05.603Z,74.56
2022-08-31T21:38:07.566Z,73.68
2022-08-31T21:41:10.596Z,74.32
2022-08-31T21:44:15.450Z,74.50
2022-08-31T21:47:17.207Z,74.38
2022-08-31T21:50:18.968Z,73.63
2022-08-31T21:53:20.747Z,72.58
2022-08-31T21:56:25.947Z,72.05
2022-08-31T21:59:36.919Z,70.37
2022-08-31T22:02:38.572Z,70.57
2022-08-31T22:05:44.748Z,70.06
2022-08-31T22:08:47.149Z,69.90
2022-08-31T22:11:54.062Z,71.24
2022-08-31T22:14:55.828Z,71.56
2022-08-31T22:18:25.982Z,73.34
2022-08-31T22:21:24.955Z,74.83
2022-08-31T22:24:29.595Z,75.46
2022-08-31T22:27:31.323Z,75.53
2022-08-31T22:30:35.994Z,72.86
2022-08-31T22:33:38.791Z,73.52
2022-08-31T22:36:53.243Z,74.81
2022-08-31T22:39:55.528Z,75.06
2022-08-31T22:42:58.684Z,76.17
2022-08-31T22:46:00.690Z,75.76
2022-08-31T22:49:03.043Z,76.10
2022-08-31T22:52:05.089Z,76.35
2022-08-31T22:55:08.272Z,76.11
2022-08-31T22:58:10.254Z,76.63
2022-08-31T23:01:34.555Z,76.46
2022-08-31T23:04:39.524Z,76.62
2022-08-31T23:07:43.837Z,77.14
2022-08-31T23:10:46.945Z,77.38
2022-08-31T23:13:55.409Z,78.00
2022-08-31T23:17:00.820Z,78.32
2022-08-31T23:20:06.456Z,79.40
2022-08-31T23:23:08.157Z,80.19
2022-08-31T23:26:10.964Z,80.75
2022-08-31T23:29:13.696Z,82.67
2022-08-31T23:32:18.914Z,81.73
2022-08-31T23:35:22.157Z,81.02
2022-08-31T23:38:25.575Z,81.62
2022-08-31T23:41:29.653Z,81.20
2022-08-31T23:44:31.799Z,81.78
2022-08-31T23:47:34.961Z,82.74
2022-08-31T23:50:37.676Z,82.64
2022-08-31T23:53:40.097Z,82.61
2022-08-31T23:56:45.951Z,82.46
2022-08-31T23:59:52.243Z,82.60
